createdAt,value
2018-07-27T00:02:59.560Z,4.30
2018-07-27T00:08:04.336Z,4.40
2018-07-27T00:13:09.222Z,4.73
2018-07-27T00:18:13.584Z,4.87
2018-07-27T00:23:18.245Z,4.30
2018-07-27T00:28:22.921Z,4.70
2018-07-27T00:33:27.646Z,4.50
2018-07-27T00:38:32.374Z,4.77
2018-07-27T00:43:37.211Z,4.20
2018-07-27T00:48:41.955Z,4.77
2018-07-27T00:53:46.595Z,4.57
2018-07-27T00:58:51.412Z,4.60
2018-07-27T01:03:56.101Z,4.83
2018-07-27T01:09:00.799Z,4.63
2018-07-27T01:14:05.720Z,4.77
2018-07-27T01:19:10.462Z,4.70
2018-07-27T01:24:15.221Z,4.73
2018-07-27T01:29:20.152Z,4.73
2018-07-27T01:34:24.922Z,4.93
2018-07-27T01:39:29.596Z,4.73
2018-07-27T01:44:34.251Z,4.77
2018-07-27T01:49:39.057Z,4.67
2018-07-27T01:54:43.765Z,4.80
2018-07-27T01:59:48.488Z,4.70
2018-07-27T02:04:53.192Z,5.00
2018-07-27T02:09:57.909Z,5.10
2018-07-27T02:15:02.594Z,4.70
2018-07-27T02:20:07.308Z,5.07
2018-07-27T02:25:11.968Z,4.63
2018-07-27T02:30:16.960Z,4.83
2018-07-27T02:35:21.672Z,4.17
2018-07-27T02:40:26.512Z,4.80
2018-07-27T02:45:31.365Z,4.63
2018-07-27T02:50:36.036Z,4.97
2018-07-27T02:55:40.854Z,4.90
2018-07-27T03:00:45.770Z,5.50
2018-07-27T03:05:50.611Z,4.90
2018-07-27T03:10:55.327Z,5.13
2018-07-27T03:16:00.119Z,5.07
2018-07-27T03:21:04.833Z,5.20
2018-07-27T03:26:09.594Z,5.10
2018-07-27T03:31:14.287Z,5.87
2018-07-27T03:36:18.997Z,5.40
2018-07-27T03:41:23.736Z,5.33
2018-07-27T03:46:28.626Z,5.33
2018-07-27T03:51:33.473Z,5.27
2018-07-27T03:56:38.249Z,5.03
2018-07-27T04:01:43.044Z,5.33
2018-07-27T04:06:47.732Z,5.30
2018-07-27T04:11:52.397Z,4.80
2018-07-27T04:16:56.754Z,5.30
2018-07-27T04:22:01.551Z,5.07
2018-07-27T04:27:06.349Z,5.27
2018-07-27T04:32:11.163Z,5.17
2018-07-27T04:37:15.823Z,4.87
2018-07-27T04:42:20.566Z,5.40
2018-07-27T04:47:25.361Z,4.30
2018-07-27T04:52:30.497Z,4.70
2018-07-27T04:57:35.154Z,4.67
2018-07-27T05:02:40.113Z,4.10
2018-07-27T05:07:44.946Z,4.60
2018-07-27T05:12:49.585Z,5.10
2018-07-27T05:17:54.314Z,5.40
2018-07-27T05:22:58.978Z,5.07
2018-07-27T05:28:03.689Z,5.10
2018-07-27T05:33:08.419Z,5.67
2018-07-27T05:38:13.209Z,5.23
2018-07-27T05:43:18.050Z,5.70
2018-07-27T05:48:22.787Z,4.97
2018-07-27T05:53:27.536Z,5.73
2018-07-27T05:58:32.247Z,5.87
2018-07-27T06:03:36.894Z,4.97
2018-07-27T06:08:41.628Z,5.20
2018-07-27T06:13:46.375Z,5.40
2018-07-27T06:18:51.098Z,5.10
2018-07-27T06:23:55.876Z,5.67
2018-07-27T06:29:00.557Z,6.50
2018-07-27T06:34:05.227Z,6.00
2018-07-27T06:39:11.731Z,6.47
2018-07-27T06:44:16.433Z,7.23
2018-07-27T06:49:21.196Z,6.47
2018-07-27T06:54:25.886Z,6.90
2018-07-27T06:59:30.667Z,6.87
2018-07-27T07:04:35.349Z,5.67
2018-07-27T07:09:39.764Z,5.50
2018-07-27T07:14:44.432Z,6.37
2018-07-27T07:19:49.097Z,5.77
2018-07-27T07:24:53.870Z,5.70
2018-07-27T07:29:58.804Z,5.70
2018-07-27T07:35:03.533Z,5.50
2018-07-27T07:40:09.230Z,5.77
2018-07-27T07:45:13.964Z,5.43
2018-07-27T07:50:18.725Z,5.60
2018-07-27T07:55:23.544Z,6.43
2018-07-27T08:00:28.424Z,5.67
2018-07-27T08:05:33.164Z,5.77
2018-07-27T08:10:37.887Z,5.87
2018-07-27T08:15:42.579Z,5.93
2018-07-27T08:20:47.383Z,6.33
2018-07-27T08:27:04.030Z,5.57
2018-07-27T08:32:09.009Z,5.47
2018-07-27T08:37:13.961Z,5.47
2018-07-27T08:42:18.738Z,5.43
2018-07-27T08:47:23.491Z,5.60
2018-07-27T08:52:28.096Z,5.27
2018-07-27T08:57:32.891Z,5.20
2018-07-27T09:02:37.651Z,4.43
2018-07-27T09:07:42.372Z,4.53
2018-07-27T09:12:47.096Z,4.73
2018-07-27T09:17:51.831Z,4.23
2018-07-27T09:22:56.609Z,4.77
2018-07-27T09:28:01.388Z,4.40
2018-07-27T09:33:06.205Z,4.70
2018-07-27T09:38:10.933Z,4.07
2018-07-27T09:43:16.505Z,4.53
2018-07-27T09:48:21.309Z,4.30
2018-07-27T09:53:26.377Z,4.60
2018-07-27T09:58:31.188Z,4.53
2018-07-27T10:03:35.976Z,4.93
2018-07-27T10:08:40.684Z,4.30
2018-07-27T10:13:46.990Z,4.70
2018-07-27T10:18:51.686Z,4.00
2018-07-27T10:23:56.629Z,3.90
2018-07-27T10:29:01.422Z,3.77
2018-07-27T10:34:06.263Z,4.27
2018-07-27T10:39:12.156Z,4.03
2018-07-27T10:44:17.225Z,4.00
2018-07-27T10:49:22.041Z,4.23
2018-07-27T10:54:26.872Z,4.03
2018-07-27T10:59:31.701Z,4.20
2018-07-27T11:04:37.877Z,4.83
2018-07-27T11:09:42.685Z,4.57
2018-07-27T11:14:47.330Z,4.40
2018-07-27T11:19:52.672Z,4.67
2018-07-27T11:24:57.479Z,4.40
2018-07-27T11:30:02.452Z,3.90
2018-07-27T11:35:07.203Z,4.03
2018-07-27T11:40:13.292Z,4.00
2018-07-27T11:45:18.077Z,4.23
2018-07-27T11:50:22.811Z,4.00
2018-07-27T11:55:27.534Z,3.87
2018-07-27T12:00:32.253Z,4.08
2018-07-27T12:05:36.961Z,4.42
2018-07-27T12:10:41.668Z,4.30
2018-07-27T12:15:46.449Z,4.37
2018-07-27T12:20:51.651Z,4.22
2018-07-27T12:25:56.160Z,4.23
2018-07-27T12:31:00.974Z,4.43
2018-07-27T12:36:06.204Z,4.13
2018-07-27T12:41:11.062Z,4.40
2018-07-27T12:46:15.837Z,4.10
2018-07-27T12:51:20.478Z,4.40
2018-07-27T12:56:25.194Z,4.33
2018-07-27T13:01:29.970Z,4.37
2018-07-27T13:06:34.747Z,3.90
2018-07-27T13:11:40.518Z,4.43
2018-07-27T13:16:45.253Z,4.07
2018-07-27T13:21:50.243Z,4.00
2018-07-27T13:26:55.091Z,4.00
2018-07-27T13:32:00.584Z,4.53
2018-07-27T13:37:05.870Z,4.07
2018-07-27T13:42:13.084Z,4.10
2018-07-27T13:47:18.456Z,3.83
2018-07-27T13:52:23.259Z,4.17
2018-07-27T13:57:28.013Z,3.67
2018-07-27T14:02:32.880Z,3.90
2018-07-27T14:08:37.511Z,3.85
2018-07-27T14:13:42.272Z,3.50
2018-07-27T14:18:47.038Z,3.42
2018-07-27T14:23:51.995Z,3.27
2018-07-27T14:34:11.742Z,3.42
2018-07-27T14:39:17.081Z,3.15
2018-07-27T14:44:21.804Z,3.70
2018-07-27T14:49:26.602Z,4.05
2018-07-27T14:54:31.415Z,3.52
2018-07-27T14:59:36.142Z,3.55
2018-07-27T15:04:40.931Z,3.30
2018-07-27T15:09:48.973Z,3.12
2018-07-27T15:14:53.733Z,3.65
2018-07-27T15:19:58.645Z,3.50
2018-07-27T15:25:03.435Z,3.35
2018-07-27T15:30:08.486Z,4.08
2018-07-27T15:35:13.301Z,3.25
2018-07-27T15:40:18.123Z,3.50
2018-07-27T15:45:22.831Z,3.75
2018-07-27T15:50:27.536Z,3.20
2018-07-27T15:55:32.310Z,3.47
2018-07-27T16:00:37.145Z,3.77
2018-07-27T16:05:42.131Z,3.27
2018-07-27T16:10:46.915Z,3.80
2018-07-27T16:15:51.691Z,3.73
2018-07-27T16:20:56.490Z,4.47
2018-07-27T16:26:01.178Z,4.40
2018-07-27T16:31:06.000Z,4.17
2018-07-27T16:36:10.789Z,4.07
2018-07-27T16:41:15.563Z,4.53
2018-07-27T16:46:20.336Z,4.30
2018-07-27T16:51:30.720Z,4.20
2018-07-27T16:56:35.422Z,4.50
2018-07-27T17:01:40.105Z,4.57
2018-07-27T17:06:44.833Z,4.47
2018-07-27T17:11:49.705Z,4.33
2018-07-27T17:16:54.571Z,4.57
2018-07-27T17:21:59.368Z,4.63
2018-07-27T17:27:04.152Z,4.10
2018-07-27T17:32:09.076Z,4.60
2018-07-27T17:37:13.882Z,4.40
2018-07-27T17:42:18.729Z,4.47
2018-07-27T17:47:23.608Z,3.70
2018-07-27T17:52:28.065Z,4.10
2018-07-27T17:57:32.793Z,3.80
2018-07-27T18:02:37.978Z,3.57
2018-07-27T18:07:42.892Z,3.60
2018-07-27T18:12:47.483Z,4.30
2018-07-27T18:17:52.231Z,4.43
2018-07-27T18:22:56.996Z,3.83
2018-07-27T18:28:01.846Z,4.10
2018-07-27T18:33:07.022Z,4.07
2018-07-27T18:38:12.065Z,4.10
2018-07-27T18:43:16.942Z,4.40
2018-07-27T18:48:21.975Z,4.27
2018-07-27T18:53:26.745Z,4.10
2018-07-27T18:58:31.430Z,4.00
2018-07-27T19:03:36.247Z,3.87
2018-07-27T19:08:41.354Z,4.57
2018-07-27T19:13:46.142Z,3.47
2018-07-27T19:18:51.079Z,4.43
2018-07-27T19:23:55.889Z,4.67
2018-07-27T19:29:00.679Z,4.40
2018-07-27T19:34:05.437Z,4.37
2018-07-27T19:39:12.139Z,4.67
2018-07-27T19:44:16.916Z,4.77
2018-07-27T19:49:21.925Z,4.07
2018-07-27T19:54:26.775Z,4.60
2018-07-27T19:59:31.615Z,4.60
2018-07-27T20:04:36.474Z,4.40
2018-07-27T20:09:41.347Z,4.37
2018-07-27T20:14:46.207Z,4.97
2018-07-27T20:19:50.987Z,4.77
2018-07-27T20:24:55.972Z,4.60
2018-07-27T20:30:00.945Z,4.60
2018-07-27T20:35:05.705Z,4.43
2018-07-27T20:40:10.660Z,4.50
2018-07-27T20:45:15.500Z,5.07
2018-07-27T20:50:20.382Z,5.37
2018-07-27T20:55:25.169Z,4.70
2018-07-27T21:00:29.922Z,5.00
2018-07-27T21:05:34.788Z,5.23
2018-07-27T21:10:39.595Z,5.10
2018-07-27T21:15:44.267Z,5.20
2018-07-27T21:20:49.418Z,5.07
2018-07-27T21:25:54.259Z,5.67
2018-07-27T21:30:58.989Z,5.50
2018-07-27T21:36:03.926Z,5.20
2018-07-27T21:41:08.734Z,5.10
2018-07-27T21:46:13.617Z,5.10
2018-07-27T21:51:19.306Z,5.33
2018-07-27T21:56:23.995Z,5.40
2018-07-27T22:01:28.690Z,5.63
2018-07-27T22:06:33.064Z,5.57
2018-07-27T22:11:38.132Z,5.23
2018-07-27T22:16:43.905Z,4.93
2018-07-27T22:21:49.319Z,5.27
2018-07-27T22:26:55.457Z,4.97
2018-07-27T22:32:00.820Z,5.37
2018-07-27T22:37:06.952Z,5.80
2018-07-27T22:42:11.814Z,5.43
2018-07-27T22:47:16.622Z,4.73
2018-07-27T22:52:21.628Z,5.20
2018-07-27T22:57:26.697Z,5.40
2018-07-27T23:02:31.706Z,6.07
2018-07-27T23:07:36.736Z,5.17
2018-07-27T23:12:41.525Z,5.87
2018-07-27T23:17:46.354Z,5.87
2018-07-27T23:22:51.284Z,5.57
2018-07-27T23:27:56.054Z,5.40
2018-07-27T23:33:00.857Z,5.83
2018-07-27T23:38:05.819Z,5.10
2018-07-27T23:43:10.625Z,5.93
2018-07-27T23:48:15.429Z,6.30
2018-07-27T23:53:20.197Z,5.80
2018-07-27T23:58:24.886Z,6.03
